KOWA

Owatonna Degner Regional Airport

Owatonna, Minnesota, USA
METAR KOWA 191831Z AUTO 08010KT 10SM -RA OVC007 19/17 A2996 RMK AO2
Observed Flight Rules
Sep-19 @ 18:31 UTC (17 minutes ago) Instrument Flight Rules
Wind Visibility Clouds Conditions
80° at 10 knots 10 miles
  • Overcast at 700' AGL
  • Light Rain
Temperatures Readings
Current 19°C / 66°F
Dewpoint 17°C / 63°F
Humidity 88%
Altimeter 29.96" Hg
Pressure 1015 hPa
Elevation 350
METAR KOWA 191831Z AUTO 08010KT 10SM -RA OVC007 19/17 A2996 RMK AO2
Observed Flight Rules
Sep-19 @ 18:31 UTC
(17 minutes ago)
IFR
Wind Visibility
80° at 10 knots 10 miles
Clouds
  • Overcast at 700' AGL
Conditions
  • Light Rain
Temperature Dewpoint
19°C / 66°F 17°C / 63°F
Humidity Altimeter Pressure
88% 29.96" Hg 1015 hPa